Himanka, Suomi

24. elokuuta 2017 klo 13:37 (EEST) (GMT +0300)
Ainali | | Change Station

Kork 105 ft 64.05 °N, 23.90 °E | Updated 21 seconds ago

Täysin pilvistä
Täysin pilvistä
54.1 °F
Tuntuu kuin 54.1 °F
N
4.0
Tuuli Suunnaltaan vaihteleva Tuuli ilmansuunnasta Luode
Gusts 13.0 mph

Tänään
Korkea -- | Matala -- °F
--% Sateen mahd.
Eilen
Korkea -- | Matala -- °F
Precip. -- tuumaa
Ilmanpaine 29.80 tuumaa
Näkyvyys 6.2 mailia
Pilviä Harvoja pilviä 1700 ft
Vähäistä pilvisyyttä 2000 ft
Pilvistä 4400 ft
Kastepiste 50 °F
Ilmankosteus 85%
Sademäärä 0.00 tuumaa
Lumensyvyys Ei saatavilla
5:44 AM 9:08 PM
Kasvava sirppi, 9% visible
METAR EFKK 241020Z 34011KT 300V020 9999 FEW017 SCT020 BKN044 14/09 Q1009
Ilmanpaine 29.80 tuumaa
Näkyvyys 6.2 mailia
Pilviä Harvoja pilviä 1700 ft
Vähäistä pilvisyyttä 2000 ft
Pilvistä 4400 ft
Kastepiste 50 °F
Ilmankosteus 85%
Sademäärä 0.00 tuumaa
Lumensyvyys Ei saatavilla
5:44 AM 9:08 PM
Kasvava sirppi, 9% visible
METAR EFKK 241020Z 34011KT 300V020 9999 FEW017 SCT020 BKN044 14/09 Q1009

Get Severe Weather Alerts

Thanks for signing up!

Be on the lookout for a verification email in your inbox.

You'll start receiving the daily forecast at 6 AM.

×

10-Day Weather Forecast

×

Almanac

Tähtitiede

Aug. 24, 2017 Nousuaika Laskuaika
Valoisa aika
Porvarillinen hämärä
Nauttinen hämärä
Astronominen hämärä
Kuu
Näkyvän valon pituus
Päivän pituus
Tomorrow will be .
, % of the Moon is Illuminated

Tämän päivän ennätykset

Country Highs Country Lows

Community

WunderPhotos

Category 6

Welcome to Category 6. This is the collective home for Weather Underground's featured writeups by Dr. Jeff Masters (right), Bob Henson (left), Chris Burt, and other regular contributors.

Nearby

Ilmanlaatu

  Ilmanlaatu AQ Index Pollutant
Not available.

Lumensyvyys

Station Depth Korkeus

Maanjäristysaktiivisuus

Paikkakunta Distance Mag. Time & Date
Minimum magnitude displayed is 2.5.

Coastal Water Temperatures

Paikka Lämpötila

Stations

Lähimmät sääasemat

Aseman sijainti Lämpötila Tuulen hyytävyys Kastepiste Ilmankosteus Tuuli Precip. Kork Päivitetty Tyyppi